createdAt,value
2017-03-25T00:00:27.131Z,56.1
2017-03-25T00:01:37.053Z,56.07
2017-03-25T00:02:46.747Z,55.88
2017-03-25T00:03:56.646Z,56.16
2017-03-25T00:05:06.327Z,56.35
2017-03-25T00:06:16.202Z,56.16
2017-03-25T00:07:26.147Z,56.45
2017-03-25T00:08:36.309Z,56.83
2017-03-25T00:09:45.891Z,56.35
2017-03-25T00:10:55.816Z,56.73
2017-03-25T00:12:06.028Z,56.92
2017-03-25T00:13:15.970Z,56.54
2017-03-25T00:14:25.902Z,56.83
2017-03-25T00:15:35.917Z,56.83
2017-03-25T00:16:45.831Z,56.83
2017-03-25T00:19:10.123Z,56.73
2017-03-25T00:20:19.800Z,57.11
2017-03-25T00:21:29.788Z,57.5
2017-03-25T00:22:39.698Z,57.3
2017-03-25T00:23:49.290Z,56.83
2017-03-25T00:24:58.951Z,56.92
2017-03-25T00:26:08.925Z,57.3
2017-03-25T00:27:18.928Z,57.4
2017-03-25T00:28:28.926Z,57.21
2017-03-25T00:29:38.940Z,57.21
2017-03-25T00:30:49.322Z,57.11
2017-03-25T00:31:59.233Z,57.68
2017-03-25T00:33:09.148Z,57.78
2017-03-25T00:34:19.187Z,57.59
2017-03-25T00:35:28.484Z,57.59
2017-03-25T00:36:38.660Z,57.59
2017-03-25T00:37:47.927Z,57.59
2017-03-25T00:38:57.521Z,57.78
2017-03-25T00:40:07.528Z,57.87
2017-03-25T00:41:17.477Z,57.78
2017-03-25T00:42:27.674Z,57.97
2017-03-25T00:43:37.564Z,57.97
2017-03-25T00:44:47.157Z,58.06
2017-03-25T00:45:57.084Z,57.97
2017-03-25T00:47:06.358Z,58.13
2017-03-25T00:48:16.497Z,57.94
2017-03-25T00:49:26.509Z,58.35
2017-03-25T00:50:36.096Z,58.63
2017-03-25T00:51:46.101Z,58.61
2017-03-25T00:52:56.031Z,58.51
2017-03-25T00:54:05.562Z,58.41
2017-03-25T00:55:15.465Z,58.7
2017-03-25T00:56:25.429Z,58.41
2017-03-25T00:57:35.424Z,58.98
2017-03-25T00:58:45.339Z,58.8
2017-03-25T00:59:55.536Z,58.7
2017-03-25T01:01:05.176Z,58.89
2017-03-25T01:02:15.097Z,59.08
2017-03-25T01:03:25.157Z,59.27
2017-03-25T01:04:34.764Z,58.61
2017-03-25T01:05:44.613Z,58.8
2017-03-25T01:06:54.212Z,58.7
2017-03-25T01:08:03.846Z,58.7
2017-03-25T01:09:13.745Z,58.7
2017-03-25T01:10:23.772Z,59.27
2017-03-25T01:11:34.000Z,59.27
2017-03-25T01:12:44.005Z,58.98
2017-03-25T01:13:53.909Z,59.17
2017-03-25T01:15:03.492Z,59.36
2017-03-25T01:16:13.412Z,59.17
2017-03-25T01:17:23.106Z,59.08
2017-03-25T01:18:32.440Z,59.27
2017-03-25T01:19:42.355Z,59.65
2017-03-25T01:20:51.671Z,59.46
2017-03-25T01:22:01.252Z,59.46
2017-03-25T01:23:11.661Z,59.46
2017-03-25T01:24:21.555Z,59.36
2017-03-25T01:25:31.376Z,59.84
2017-03-25T01:26:41.306Z,59.36
2017-03-25T01:27:50.960Z,59.36
2017-03-25T01:29:01.148Z,59.55
2017-03-25T01:30:11.078Z,59.46
2017-03-25T01:31:21.000Z,59.46
2017-03-25T01:32:30.594Z,59.65
2017-03-25T01:33:40.542Z,59.65
2017-03-25T01:34:50.692Z,59.55
2017-03-25T01:36:00.596Z,59.65
2017-03-25T01:37:10.557Z,59.36
2017-03-25T01:38:20.210Z,58.89
2017-03-25T01:39:29.797Z,59.27
2017-03-25T01:40:39.678Z,59.27
2017-03-25T01:41:49.684Z,59.65
2017-03-25T01:42:59.255Z,59.55
2017-03-25T01:44:09.018Z,59.46
2017-03-25T01:45:18.646Z,59.46
2017-03-25T01:46:28.799Z,59.74
2017-03-25T01:47:38.794Z,58.98
2017-03-25T01:48:48.736Z,58.7
2017-03-25T01:49:58.163Z,58.98
2017-03-25T01:51:08.066Z,59.27
2017-03-25T01:52:17.975Z,59.08
2017-03-25T01:53:27.608Z,58.7
2017-03-25T01:54:37.752Z,59.17
2017-03-25T01:55:47.723Z,59.08
2017-03-25T01:56:57.841Z,59.08
2017-03-25T01:58:08.081Z,59.08
2017-03-25T01:59:18.026Z,58.76
2017-03-25T02:00:27.965Z,58.8
2017-03-25T02:01:37.906Z,59.24
2017-03-25T02:02:47.810Z,59.14
2017-03-25T02:03:58.091Z,59.43
2017-03-25T02:05:07.999Z,59.62
2017-03-25T02:06:17.579Z,59.33
2017-03-25T02:07:27.174Z,59.81
2017-03-25T02:08:37.081Z,59.52
2017-03-25T02:09:46.927Z,59.52
2017-03-25T02:10:56.558Z,59.71
2017-03-25T02:12:06.694Z,59.52
2017-03-25T02:13:16.624Z,59.52
2017-03-25T02:14:26.535Z,59.62
2017-03-25T02:15:36.456Z,58.95
2017-03-25T02:16:46.052Z,58.86
2017-03-25T02:17:55.642Z,58.76
2017-03-25T02:19:05.667Z,58.67
2017-03-25T02:20:15.676Z,58.58
2017-03-25T02:21:25.524Z,59.05
2017-03-25T02:22:34.508Z,59.24
2017-03-25T02:23:44.400Z,59.05
2017-03-25T02:24:54.080Z,59.24
2017-03-25T02:26:04.036Z,59.05
2017-03-25T02:27:14.095Z,59.05
2017-03-25T02:28:23.678Z,59.14
2017-03-25T02:29:33.252Z,59.14
2017-03-25T02:30:43.145Z,59.52
2017-03-25T02:31:52.729Z,59.05
2017-03-25T02:33:02.876Z,59.14
2017-03-25T02:34:12.471Z,58.86
2017-03-25T02:35:21.731Z,58.67
2017-03-25T02:36:31.700Z,58.58
2017-03-25T02:37:41.406Z,57.91
2017-03-25T02:38:51.750Z,58
2017-03-25T02:40:01.737Z,58
2017-03-25T02:41:11.731Z,57.91
2017-03-25T02:42:21.758Z,58.03
2017-03-25T02:43:31.367Z,58
2017-03-25T02:44:41.585Z,58.03
2017-03-25T02:45:51.628Z,58.58
2017-03-25T02:47:01.613Z,58.86
2017-03-25T02:48:11.558Z,58.76
2017-03-25T02:49:21.136Z,58.58
2017-03-25T02:50:31.012Z,59.05
2017-03-25T02:51:40.942Z,58.76
2017-03-25T02:52:50.533Z,58.95
2017-03-25T02:54:00.498Z,58.86
2017-03-25T02:55:10.408Z,58.76
2017-03-25T02:56:20.598Z,58.86
2017-03-25T02:57:30.515Z,59.05
2017-03-25T02:58:40.487Z,58.76
2017-03-25T02:59:50.431Z,59.14
2017-03-25T03:00:59.720Z,58.95
2017-03-25T03:02:09.983Z,58.95
2017-03-25T03:03:19.572Z,59.33
2017-03-25T03:04:29.486Z,59.14
2017-03-25T03:05:38.785Z,58.86
2017-03-25T03:06:48.725Z,58.76
2017-03-25T03:07:58.933Z,58.86
2017-03-25T03:09:08.558Z,58.95
2017-03-25T03:10:18.165Z,59.62
2017-03-25T03:11:27.741Z,59.33
2017-03-25T03:12:37.770Z,59.81
2017-03-25T03:13:47.930Z,59.71
2017-03-25T03:14:57.888Z,60.1
2017-03-25T03:16:07.490Z,60
2017-03-25T03:17:17.152Z,60
2017-03-25T03:18:26.740Z,60.1
2017-03-25T03:19:37.012Z,60
2017-03-25T03:20:47.244Z,59.43
2017-03-25T03:21:56.875Z,59.33
2017-03-25T03:23:06.174Z,59.52
2017-03-25T03:24:16.140Z,59.33
2017-03-25T03:25:26.308Z,59.81
2017-03-25T03:26:36.219Z,59.24
2017-03-25T03:27:46.116Z,59.81
2017-03-25T03:28:56.043Z,59.91
2017-03-25T03:30:05.960Z,59.71
2017-03-25T03:31:16.124Z,59.62
2017-03-25T03:32:26.066Z,59.62
2017-03-25T03:33:36.099Z,59.43
2017-03-25T03:34:45.351Z,59.71
2017-03-25T03:35:54.633Z,59.62
2017-03-25T03:37:04.569Z,59.71
2017-03-25T03:38:14.501Z,59.91
2017-03-25T03:39:24.431Z,60.19
2017-03-25T03:40:34.388Z,60.1
2017-03-25T03:41:43.980Z,59.91
2017-03-25T03:42:54.185Z,60.28
2017-03-25T03:44:04.143Z,60.19
2017-03-25T03:45:14.072Z,60.28
2017-03-25T03:46:23.724Z,60
2017-03-25T03:47:33.319Z,60.28
2017-03-25T03:48:43.183Z,60.38
2017-03-25T03:49:53.125Z,60.47
2017-03-25T03:51:03.030Z,60.57
2017-03-25T03:52:13.046Z,60.85
2017-03-25T03:53:22.347Z,60.76
2017-03-25T03:54:32.498Z,61.23
2017-03-25T03:55:42.435Z,60.95
2017-03-25T03:56:52.339Z,60.76
2017-03-25T03:58:02.257Z,61.14
2017-03-25T03:59:11.878Z,60.66
2017-03-25T04:00:21.766Z,60.95
2017-03-25T04:01:31.666Z,60.47
2017-03-25T04:02:41.574Z,60.38
2017-03-25T04:03:51.473Z,60.47
2017-03-25T04:05:01.072Z,60.66
2017-03-25T04:06:11.295Z,61.04
2017-03-25T04:07:21.195Z,60.95
2017-03-25T04:08:31.177Z,61.14
2017-03-25T04:09:41.246Z,60.28
2017-03-25T04:10:51.189Z,60.47
2017-03-25T04:12:01.086Z,60.66
2017-03-25T04:13:10.670Z,60.47
2017-03-25T04:14:20.573Z,60.47
2017-03-25T04:15:30.211Z,60.38
2017-03-25T04:16:40.103Z,60.38
2017-03-25T04:17:49.675Z,60.47
2017-03-25T04:18:59.031Z,60.47
2017-03-25T04:20:08.930Z,60.47
2017-03-25T04:21:18.831Z,60.38
2017-03-25T04:22:28.822Z,60.38
2017-03-25T04:23:39.057Z,60.85
2017-03-25T04:24:49.013Z,60.47
2017-03-25T04:25:58.627Z,60.19
2017-03-25T04:27:08.213Z,60.28
2017-03-25T04:28:18.149Z,61.14
2017-03-25T04:29:28.317Z,60.76
2017-03-25T04:30:38.403Z,60.85
2017-03-25T04:31:48.330Z,60.85
2017-03-25T04:32:57.921Z,60.76
2017-03-25T04:34:07.691Z,61.14
2017-03-25T04:35:17.564Z,61.04
2017-03-25T04:36:27.571Z,61.04
2017-03-25T04:37:37.518Z,61.04
2017-03-25T04:38:47.438Z,61.04
2017-03-25T04:39:57.568Z,61.23
2017-03-25T04:41:07.725Z,60.85
2017-03-25T04:42:17.333Z,61.14
2017-03-25T04:43:27.308Z,61.14
2017-03-25T04:44:37.257Z,61.04
2017-03-25T04:45:47.264Z,60.85
2017-03-25T04:46:57.554Z,60.85
2017-03-25T04:48:07.492Z,60.28
2017-03-25T04:49:17.302Z,60.66
2017-03-25T04:50:26.935Z,60.57
2017-03-25T04:51:36.836Z,60.47
2017-03-25T04:52:46.365Z,60.66
2017-03-25T04:53:56.315Z,60.57
2017-03-25T04:55:06.293Z,61.14
2017-03-25T04:56:16.217Z,61.14
2017-03-25T04:57:25.804Z,60.47
2017-03-25T04:58:36.013Z,60.47
2017-03-25T04:59:45.919Z,60.19
2017-03-25T05:00:55.962Z,60.19
2017-03-25T05:02:05.232Z,60.47
2017-03-25T05:03:14.809Z,60.57
2017-03-25T05:04:24.696Z,60.66
2017-03-25T05:05:34.622Z,60.47
2017-03-25T05:06:44.539Z,60.38
2017-03-25T05:07:54.236Z,60.19
2017-03-25T05:09:03.195Z,60.19
2017-03-25T05:10:13.498Z,60
2017-03-25T05:11:23.625Z,60.1
2017-03-25T05:12:33.470Z,59.71
2017-03-25T05:13:43.385Z,59.71
2017-03-25T05:14:52.671Z,59.71
2017-03-25T05:16:02.981Z,60.1
2017-03-25T05:17:12.885Z,60.1
2017-03-25T05:18:22.472Z,60
2017-03-25T05:19:32.398Z,59.43
2017-03-25T05:20:42.007Z,60
2017-03-25T05:21:51.906Z,59.24
2017-03-25T05:23:01.536Z,59.71
2017-03-25T05:24:11.560Z,60
2017-03-25T05:25:21.552Z,59.71
2017-03-25T05:26:31.483Z,59.71
2017-03-25T05:27:41.345Z,59.71
2017-03-25T05:28:51.300Z,60
2017-03-25T05:30:00.895Z,59.62
2017-03-25T05:31:10.815Z,60.1
2017-03-25T05:32:20.455Z,60
2017-03-25T05:33:30.287Z,60
2017-03-25T05:34:40.181Z,60.1
2017-03-25T05:35:50.117Z,60.57
2017-03-25T05:36:59.510Z,60.76
2017-03-25T05:38:09.418Z,60.95
2017-03-25T05:39:18.976Z,60.66
2017-03-25T05:40:28.949Z,61.3
2017-03-25T05:41:38.525Z,61.14
2017-03-25T05:42:48.426Z,61.04
2017-03-25T05:43:58.365Z,61.14
2017-03-25T05:45:08.521Z,61.14
2017-03-25T05:46:18.450Z,61.33
2017-03-25T05:47:28.070Z,61.14
2017-03-25T05:48:37.983Z,61.14
2017-03-25T05:49:47.907Z,61.14
2017-03-25T05:50:58.090Z,60.95
2017-03-25T05:52:08.110Z,61.23
2017-03-25T05:53:17.689Z,61.14
2017-03-25T05:54:27.756Z,61.04
2017-03-25T05:55:37.674Z,61.14
2017-03-25T05:56:47.872Z,61.42
2017-03-25T05:57:57.767Z,61.14
2017-03-25T05:59:07.729Z,60.85
2017-03-25T06:00:17.743Z,61.04
2017-03-25T06:01:27.675Z,61.14
2017-03-25T06:02:37.827Z,61.23
2017-03-25T06:03:47.447Z,61.04
2017-03-25T06:04:57.351Z,61.42
2017-03-25T06:06:06.985Z,61.14
2017-03-25T06:07:16.717Z,61.04
2017-03-25T06:08:26.631Z,61.04
2017-03-25T06:09:36.249Z,61.14
2017-03-25T06:10:45.883Z,61.23
2017-03-25T06:11:55.945Z,60.66
2017-03-25T06:13:05.879Z,60.76
2017-03-25T06:14:16.043Z,60.76
2017-03-25T06:15:25.783Z,60.95
2017-03-25T06:16:35.377Z,60.38
2017-03-25T06:17:44.640Z,60.47
2017-03-25T06:18:54.562Z,60.95
2017-03-25T06:20:04.826Z,60.85
2017-03-25T06:21:14.728Z,60.85
2017-03-25T06:22:24.149Z,60.47
2017-03-25T06:23:33.734Z,60.03
2017-03-25T06:24:43.678Z,59.84
2017-03-25T06:25:53.187Z,60.03
2017-03-25T06:27:03.178Z,60.03
2017-03-25T06:28:13.107Z,59.46
2017-03-25T06:29:23.123Z,59.84
2017-03-25T06:30:33.045Z,59.55
2017-03-25T06:31:42.958Z,59.36
2017-03-25T06:32:52.590Z,59.36
2017-03-25T06:34:02.502Z,58.98
2017-03-25T06:35:12.470Z,58.7
2017-03-25T06:36:22.378Z,58.89
2017-03-25T06:37:32.583Z,58.8
2017-03-25T06:38:42.496Z,58.41
2017-03-25T06:39:52.573Z,58.51
2017-03-25T06:41:02.471Z,58.89
2017-03-25T06:42:12.390Z,58.89
2017-03-25T06:43:22.684Z,58.7
2017-03-25T06:44:32.657Z,58.89
2017-03-25T06:45:42.004Z,58.8
2017-03-25T06:46:51.593Z,58.61
2017-03-25T06:48:01.533Z,58.7
2017-03-25T06:49:11.435Z,58.73
2017-03-25T06:50:21.052Z,59.01
2017-03-25T06:51:30.957Z,58.54
2017-03-25T06:52:40.859Z,57.87
2017-03-25T06:53:51.201Z,57.97
2017-03-25T06:55:01.388Z,57.87
2017-03-25T06:56:11.381Z,57.87
2017-03-25T06:57:21.345Z,57.78
2017-03-25T06:58:30.671Z,57.68
2017-03-25T06:59:40.050Z,57.59
2017-03-25T07:00:50.206Z,56.83
2017-03-25T07:02:00.159Z,56.83
2017-03-25T07:03:10.376Z,56.63
2017-03-25T07:04:19.968Z,56.83
2017-03-25T07:05:29.868Z,56.48
2017-03-25T07:06:40.026Z,56
2017-03-25T07:07:49.939Z,55.71
2017-03-25T07:08:59.907Z,55.62
2017-03-25T07:10:09.497Z,55.62
2017-03-25T07:11:19.442Z,55.62
2017-03-25T07:12:29.729Z,55.43
2017-03-25T07:13:39.782Z,54.86
2017-03-25T07:14:49.696Z,55.05
2017-03-25T07:15:59.628Z,54.6
2017-03-25T07:17:09.552Z,54.77
2017-03-25T07:18:19.765Z,55.05
2017-03-25T07:19:29.721Z,54.6
2017-03-25T07:20:39.637Z,54.79
2017-03-25T07:21:48.920Z,54.98
2017-03-25T07:22:58.924Z,54.22
2017-03-25T07:24:08.868Z,54.69
2017-03-25T07:25:18.779Z,54.03
2017-03-25T07:26:28.692Z,54.03
2017-03-25T07:27:38.612Z,53.94
2017-03-25T07:28:48.513Z,53.84
2017-03-25T07:29:58.728Z,54.06
2017-03-25T07:31:08.371Z,53.39
2017-03-25T07:32:18.286Z,53.96
2017-03-25T07:33:27.883Z,53.67
2017-03-25T07:34:37.835Z,53.11
2017-03-25T07:35:48.062Z,52.82
2017-03-25T07:36:57.969Z,51.97
2017-03-25T07:38:07.599Z,52.09
2017-03-25T07:39:16.865Z,52.15
2017-03-25T07:40:26.779Z,51.8
2017-03-25T07:41:37.012Z,51.99
2017-03-25T07:42:46.593Z,51.51
2017-03-25T07:43:56.495Z,51.14
2017-03-25T07:45:06.449Z,51.04
2017-03-25T07:46:16.491Z,50.56
2017-03-25T07:47:26.751Z,50.49
2017-03-25T07:48:36.342Z,50.01
2017-03-25T07:49:46.326Z,49.35
2017-03-25T07:50:56.282Z,48.58
2017-03-25T07:52:06.005Z,48.58
2017-03-25T07:53:16.256Z,48.52
2017-03-25T07:54:26.182Z,48.52
2017-03-25T07:55:35.765Z,48.32
2017-03-25T07:56:45.370Z,47.68
2017-03-25T07:57:54.640Z,46.63
2017-03-25T07:59:04.966Z,46.37
2017-03-25T08:00:14.889Z,44.65
2017-03-25T08:01:24.475Z,44.08
2017-03-25T08:02:34.511Z,44.1
2017-03-25T08:03:44.493Z,43.05
2017-03-25T08:04:54.333Z,42.5
2017-03-25T08:06:04.347Z,42.5
2017-03-25T08:07:15.973Z,41.83
2017-03-25T08:08:26.561Z,41.09
2017-03-25T08:09:37.065Z,40.06
2017-03-25T08:10:47.645Z,39.4
2017-03-25T08:11:57.975Z,37.24
2017-03-25T08:13:08.216Z,35.14
2017-03-25T08:14:18.721Z,34.96
2017-03-25T08:15:29.236Z,34.22
2017-03-25T08:16:39.783Z,32.12
2017-03-25T08:17:49.975Z,32.7
2017-03-25T08:19:00.535Z,31.46
2017-03-25T08:20:10.877Z,31.38
2017-03-25T08:21:20.778Z,28.89
2017-03-25T08:22:31.569Z,29.58
2017-03-25T08:23:42.107Z,28.52
2017-03-25T08:24:52.636Z,26.71
2017-03-25T08:26:02.893Z,24.98
2017-03-25T08:27:13.382Z,26.32
2017-03-25T08:28:24.164Z,25.76
2017-03-25T08:29:34.681Z,26.53
2017-03-25T08:30:45.062Z,25.09
2017-03-25T08:31:55.261Z,24.61
2017-03-25T08:33:05.791Z,24.99
2017-03-25T08:34:16.302Z,24.81
2017-03-25T08:35:26.824Z,24.73
2017-03-25T08:36:37.325Z,24.65
2017-03-25T08:37:47.650Z,24.16
2017-03-25T08:38:57.855Z,23.68
2017-03-25T08:40:08.702Z,24.27
2017-03-25T08:41:19.242Z,23.69
2017-03-25T08:42:29.430Z,24.28
2017-03-25T08:43:39.300Z,23.41
2017-03-25T08:44:49.892Z,21.5
2017-03-25T08:46:00.752Z,21.11
2017-03-25T08:47:11.259Z,20.63
2017-03-25T08:48:21.450Z,19.37
2017-03-25T08:49:32.085Z,20.33
2017-03-25T08:50:42.732Z,20.91
2017-03-25T08:51:53.498Z,20.72
2017-03-25T08:53:04.064Z,21.1
2017-03-25T08:54:14.604Z,20.43
2017-03-25T08:55:24.930Z,19.75
2017-03-25T08:56:35.119Z,20.73
2017-03-25T08:57:45.155Z,20.05
2017-03-25T08:58:55.735Z,19.96
2017-03-25T09:00:06.339Z,19.96
2017-03-25T09:01:16.611Z,19.68
2017-03-25T09:02:26.865Z,18.73
2017-03-25T09:03:37.407Z,18.44
2017-03-25T09:04:47.969Z,17.1
2017-03-25T09:05:58.205Z,16.99
2017-03-25T09:07:08.321Z,17.09
2017-03-25T09:08:18.522Z,16.81
2017-03-25T09:09:29.434Z,16.71
2017-03-25T09:10:39.990Z,16.23
2017-03-25T09:11:50.578Z,16.33
2017-03-25T09:13:00.841Z,15.56
2017-03-25T09:14:11.347Z,15.08
2017-03-25T09:15:21.889Z,14.5
2017-03-25T09:16:32.494Z,14.11
2017-03-25T09:17:42.700Z,14.3
2017-03-25T09:18:54.187Z,14.4
2017-03-25T09:20:05.398Z,14.2
2017-03-25T09:21:15.891Z,13.82
2017-03-25T09:22:26.021Z,13.63
2017-03-25T09:23:36.656Z,11.99
2017-03-25T09:24:47.193Z,11.99
2017-03-25T09:25:57.726Z,12.38
2017-03-25T09:27:08.514Z,11.7
2017-03-25T09:28:19.155Z,11.89
2017-03-25T09:29:29.426Z,11.31
2017-03-25T09:30:40.072Z,11.61
2017-03-25T09:31:50.841Z,11.51
2017-03-25T09:33:01.005Z,10.53
2017-03-25T09:34:11.672Z,10.24
2017-03-25T09:35:22.215Z,10.53
2017-03-25T09:36:32.837Z,10.82
2017-03-25T09:37:43.047Z,9.86
2017-03-25T09:38:53.834Z,10.43
2017-03-25T09:40:04.044Z,10.63
2017-03-25T09:41:14.294Z,9.75
2017-03-25T09:42:24.839Z,9.95
2017-03-25T09:43:35.039Z,8.5
2017-03-25T09:44:46.464Z,8.89
2017-03-25T09:45:57.954Z,8.5
2017-03-25T09:47:07.846Z,8.12
2017-03-25T09:48:18.375Z,8.7
2017-03-25T09:49:29.003Z,8.6
2017-03-25T09:50:39.512Z,8.22
2017-03-25T09:51:49.409Z,7.64
2017-03-25T09:52:59.921Z,6.96
2017-03-25T09:54:10.533Z,7.16
2017-03-25T09:55:21.720Z,7.16
2017-03-25T09:56:32.293Z,6.48
2017-03-25T09:57:42.840Z,6.29
2017-03-25T09:58:52.730Z,5.03
2017-03-25T10:00:02.971Z,5.51
2017-03-25T10:01:13.505Z,5.51
2017-03-25T10:02:24.281Z,4.93
2017-03-25T10:03:34.485Z,5.41
2017-03-25T10:04:44.729Z,5.32
2017-03-25T10:05:55.934Z,5.32
2017-03-25T10:07:06.146Z,4.44
2017-03-25T10:08:16.600Z,4.44
2017-03-25T10:09:26.744Z,4.54
2017-03-25T10:10:37.267Z,3.86
2017-03-25T10:11:47.798Z,4.35
2017-03-25T10:12:58.345Z,4.83
2017-03-25T10:14:09.156Z,5.21
2017-03-25T10:15:19.368Z,4.83
2017-03-25T10:16:29.578Z,4.35
2017-03-25T10:17:40.142Z,4.15
2017-03-25T10:18:50.739Z,4.05
2017-03-25T10:20:01.655Z,3.67
2017-03-25T10:21:13.142Z,3.38
2017-03-25T10:22:23.776Z,3.38
2017-03-25T10:23:34.378Z,3.09
2017-03-25T10:24:43.925Z,3.38
2017-03-25T10:25:54.710Z,4.05
2017-03-25T10:27:04.958Z,3.96
2017-03-25T10:28:15.196Z,3.38
2017-03-25T10:29:25.577Z,2.7
2017-03-25T10:30:36.162Z,2.8
2017-03-25T10:31:47.008Z,2.8
2017-03-25T10:32:57.563Z,2.9
2017-03-25T10:34:08.133Z,2.99
2017-03-25T10:35:18.377Z,2.99
2017-03-25T10:36:28.936Z,3.28
2017-03-25T10:37:39.495Z,3.76
2017-03-25T10:38:49.757Z,4.44
2017-03-25T10:40:00.319Z,4.25
2017-03-25T10:41:10.580Z,4.83
2017-03-25T10:42:20.780Z,4.15
2017-03-25T10:43:31.605Z,3.86
2017-03-25T10:44:42.169Z,3.38
2017-03-25T10:45:52.366Z,4.06
2017-03-25T10:47:02.952Z,2.61
2017-03-25T10:48:13.507Z,2.03
2017-03-25T10:49:24.315Z,1.26
2017-03-25T10:50:34.230Z,1.35
2017-03-25T10:51:44.770Z,1.74
2017-03-25T10:52:55.336Z,2.22
2017-03-25T10:54:05.291Z,2.7
2017-03-25T10:55:16.866Z,3
2017-03-25T10:56:27.411Z,3.09
2017-03-25T10:57:38.055Z,3.96
2017-03-25T10:58:48.296Z,4.35
2017-03-25T10:59:58.885Z,4.35
2017-03-25T11:01:09.664Z,4.44
2017-03-25T11:02:20.189Z,4.44
2017-03-25T11:03:30.739Z,3.86
2017-03-25T11:04:40.950Z,3.77
2017-03-25T11:05:50.933Z,3.96
2017-03-25T11:07:02.679Z,4.06
2017-03-25T11:08:13.204Z,2.42
2017-03-25T11:09:23.733Z,2.9
2017-03-25T11:10:34.310Z,2.9
2017-03-25T11:11:45.807Z,2.8
2017-03-25T11:12:56.020Z,3.28
2017-03-25T11:14:07.551Z,3.09
2017-03-25T11:15:17.767Z,2.42
2017-03-25T11:16:27.678Z,2.61
2017-03-25T11:17:38.201Z,2.51
2017-03-25T11:18:49.737Z,2.61
2017-03-25T11:20:00.068Z,2.99
2017-03-25T11:21:10.623Z,3.28
2017-03-25T11:22:21.218Z,3.38
2017-03-25T11:23:31.413Z,3.38
2017-03-25T11:24:42.309Z,3.67
2017-03-25T11:25:53.792Z,3.38
2017-03-25T11:27:04.356Z,2.99
2017-03-25T11:28:15.010Z,2.8
2017-03-25T11:29:25.564Z,3.38
2017-03-25T11:30:36.335Z,3.86
2017-03-25T11:31:46.860Z,3.28
2017-03-25T11:32:56.821Z,3.58
2017-03-25T11:34:07.427Z,3.67
2017-03-25T11:35:17.687Z,3.09
2017-03-25T11:36:28.552Z,2.9
2017-03-25T11:37:38.802Z,2.9
2017-03-25T11:38:49.111Z,3.09
2017-03-25T11:39:59.666Z,2.32
2017-03-25T11:41:10.247Z,2.51
2017-03-25T11:42:21.028Z,1.74
2017-03-25T11:43:31.554Z,1.93
2017-03-25T11:44:42.171Z,2.51
2017-03-25T11:45:52.765Z,2.71
2017-03-25T11:47:03.006Z,2.51
2017-03-25T11:48:14.752Z,2.32
2017-03-25T11:49:25.347Z,1.64
2017-03-25T11:50:35.908Z,1.64
2017-03-25T11:51:46.522Z,2.03
2017-03-25T11:52:57.770Z,2.32
2017-03-25T11:54:08.625Z,2.12
2017-03-25T11:55:19.211Z,2.03
2017-03-25T11:56:29.154Z,2.61
2017-03-25T11:57:39.689Z,2.61
2017-03-25T11:58:50.038Z,2.99
2017-03-25T12:00:00.499Z,2.8
2017-03-25T12:01:10.767Z,2.99
2017-03-25T12:02:21.352Z,2.7
2017-03-25T12:03:31.952Z,2.51
2017-03-25T12:04:42.489Z,2.51
2017-03-25T12:05:53.291Z,2.51
2017-03-25T12:07:03.207Z,2.51
2017-03-25T12:08:13.728Z,2.8
2017-03-25T12:09:24.317Z,2.99
2017-03-25T12:10:34.846Z,2.51
2017-03-25T12:11:45.687Z,2.7
2017-03-25T12:12:56.231Z,2.99
2017-03-25T12:14:06.809Z,3.38
2017-03-25T12:15:17.022Z,2.61
2017-03-25T12:16:27.169Z,2.8
2017-03-25T12:17:38.030Z,3.09
2017-03-25T12:18:48.040Z,3.47
2017-03-25T12:19:58.158Z,3.77
2017-03-25T12:21:08.373Z,3.96
2017-03-25T12:22:18.637Z,4.35
2017-03-25T12:23:28.827Z,3.86
2017-03-25T12:24:39.038Z,4.15
2017-03-25T12:25:49.613Z,4.35
2017-03-25T12:27:00.160Z,4.44
2017-03-25T12:28:10.777Z,4.73
2017-03-25T12:29:22.269Z,4.73
2017-03-25T12:30:32.160Z,4.54
2017-03-25T12:31:43.689Z,4.35
2017-03-25T12:32:54.245Z,4.54
2017-03-25T12:34:04.906Z,4.44
2017-03-25T12:35:15.756Z,4.25
2017-03-25T12:36:26.351Z,3.96
2017-03-25T12:37:36.911Z,4.44
2017-03-25T12:38:47.154Z,4.83
2017-03-25T12:39:57.078Z,5.11
2017-03-25T12:41:07.218Z,4.54
2017-03-25T12:42:17.904Z,4.83
2017-03-25T12:43:28.112Z,5.11
2017-03-25T12:44:38.642Z,4.93
2017-03-25T12:45:48.948Z,5.21
2017-03-25T12:46:59.442Z,5.21
2017-03-25T12:48:10.009Z,5.31
2017-03-25T12:49:20.644Z,5.6
2017-03-25T12:50:30.562Z,5.02
2017-03-25T12:51:41.198Z,5.5
2017-03-25T12:52:51.310Z,5.11
2017-03-25T12:54:01.594Z,5.4
2017-03-25T12:55:11.839Z,5.3
2017-03-25T12:56:22.485Z,5.59
2017-03-25T12:57:33.164Z,6.07
2017-03-25T12:58:43.621Z,6.65
2017-03-25T12:59:53.831Z,6.65
2017-03-25T13:01:04.050Z,7.04
2017-03-25T13:02:14.634Z,7.23
2017-03-25T13:03:25.218Z,7.32
2017-03-25T13:04:36.011Z,7.42
2017-03-25T13:05:46.226Z,7.42
2017-03-25T13:06:56.844Z,7.13
2017-03-25T13:08:07.389Z,7.32
2017-03-25T13:09:17.937Z,7.42
2017-03-25T13:10:28.765Z,7.8
2017-03-25T13:11:39.043Z,7.7
2017-03-25T13:12:49.586Z,7.8
2017-03-25T13:13:59.788Z,8.18
2017-03-25T13:15:10.119Z,8.47
2017-03-25T13:16:20.975Z,8.57
2017-03-25T13:17:30.863Z,8.57
2017-03-25T13:18:41.145Z,9.24
2017-03-25T13:19:51.729Z,8.56
2017-03-25T13:21:02.336Z,9.05
2017-03-25T13:22:13.836Z,8.86
2017-03-25T13:23:24.397Z,9.05
2017-03-25T13:24:34.619Z,9.43
2017-03-25T13:25:45.224Z,9.81
2017-03-25T13:26:55.135Z,9.72
2017-03-25T13:28:05.684Z,9.23
2017-03-25T13:29:16.262Z,9.62
2017-03-25T13:30:26.852Z,9.52
2017-03-25T13:31:37.451Z,9.72
2017-03-25T13:32:48.054Z,10.38
2017-03-25T13:33:58.531Z,10.19
2017-03-25T13:35:09.082Z,10.29
2017-03-25T13:36:19.603Z,10.19
2017-03-25T13:37:31.127Z,10.57
2017-03-25T13:38:41.652Z,10.96
2017-03-25T13:39:52.530Z,10.96
2017-03-25T13:41:02.790Z,11.34
2017-03-25T13:42:12.666Z,11.05
2017-03-25T13:43:22.882Z,11.82
2017-03-25T13:44:33.468Z,11.72
2017-03-25T13:45:45.261Z,12.3
2017-03-25T13:46:55.346Z,12.2
2017-03-25T13:48:04.635Z,12.3
2017-03-25T13:49:13.947Z,12.3
2017-03-25T13:50:23.575Z,12.49
2017-03-25T13:51:33.827Z,12.3
2017-03-25T13:52:43.792Z,12.49
2017-03-25T13:53:53.457Z,12.87
2017-03-25T13:55:03.406Z,13.15
2017-03-25T13:56:13.149Z,13.15
2017-03-25T13:57:23.393Z,13.64
2017-03-25T13:58:33.482Z,13.54
2017-03-25T13:59:43.410Z,14.02
2017-03-25T14:00:52.742Z,13.83
2017-03-25T14:02:02.371Z,14.02
2017-03-25T14:03:12.562Z,13.92
2017-03-25T14:04:22.500Z,14.11
2017-03-25T14:05:32.467Z,14.4
2017-03-25T14:06:42.490Z,14.4
2017-03-25T14:07:52.419Z,14.79
2017-03-25T14:09:02.651Z,14.88
2017-03-25T14:10:12.681Z,14.4
2017-03-25T14:11:22.624Z,14.87
2017-03-25T14:12:32.615Z,14.78
2017-03-25T14:13:42.723Z,15.07
2017-03-25T14:14:52.603Z,15.64
2017-03-25T14:16:02.538Z,15.36
2017-03-25T14:17:12.137Z,15.64
2017-03-25T14:18:22.077Z,15.26
2017-03-25T14:19:32.055Z,15.55
2017-03-25T14:20:42.027Z,15.74
2017-03-25T14:21:51.964Z,15.83
2017-03-25T14:23:01.940Z,15.36
2017-03-25T14:24:11.946Z,15.36
2017-03-25T14:25:21.885Z,16.03
2017-03-25T14:26:31.797Z,16.03
2017-03-25T14:27:41.734Z,16.03
2017-03-25T14:28:51.350Z,16.7
2017-03-25T14:30:01.440Z,16.31
2017-03-25T14:31:11.073Z,16.41
2017-03-25T14:32:21.295Z,16.41
2017-03-25T14:33:31.228Z,17.08
2017-03-25T14:34:40.536Z,16.99
2017-03-25T14:35:50.177Z,16.99
2017-03-25T14:36:59.813Z,16.89
2017-03-25T14:38:09.993Z,16.99
2017-03-25T14:39:19.661Z,17.08
2017-03-25T14:40:29.672Z,17.66
2017-03-25T14:41:39.615Z,17.17
2017-03-25T14:42:49.578Z,16.98
2017-03-25T14:43:59.816Z,17.07
2017-03-25T14:45:09.433Z,17.84
2017-03-25T14:46:18.765Z,17.56
2017-03-25T14:47:28.805Z,17.74
2017-03-25T14:48:38.465Z,18.14
2017-03-25T14:49:48.672Z,18.33
2017-03-25T14:50:58.605Z,18.14
2017-03-25T14:52:08.579Z,18.24
2017-03-25T14:53:18.520Z,18.14
2017-03-25T14:54:27.887Z,18.43
2017-03-25T14:55:37.752Z,18.52
2017-03-25T14:56:47.845Z,19.1
2017-03-25T14:57:57.489Z,18.81
2017-03-25T14:59:06.828Z,18.14
2017-03-25T15:00:16.819Z,18.24
2017-03-25T15:01:27.090Z,18.51
2017-03-25T15:02:36.386Z,18.61
2017-03-25T15:03:45.687Z,18.9
2017-03-25T15:04:55.327Z,18.9
2017-03-25T15:06:04.966Z,18.9
2017-03-25T15:07:15.241Z,19.38
2017-03-25T15:08:24.934Z,19.38
2017-03-25T15:09:34.927Z,19.75
2017-03-25T15:10:44.867Z,19.65
2017-03-25T15:11:54.555Z,19.85
2017-03-25T15:13:04.789Z,20.23
2017-03-25T15:14:14.766Z,20.32
2017-03-25T15:15:24.829Z,20.14
2017-03-25T15:16:34.787Z,20.9